Terminal Aerodrome Forecast
Issued by NWS Paducah, KY

Home | Current Version | Previous Version | Text Only | Print | Product List | Glossary On
Versions: 1 2 3 4 5 6 7 8 9 10 11 12 13 14 15 16 17 18
000
FTUS43 KPAH 230934 AAB
TAFEVV
TAF AMD
KEVV 230934Z 2310/2406 00000KT 4SM BR MIFG SCT250
      TEMPO 2310/2313 1SM BR
     FM231300 00000KT 2SM BR SCT250
     FM231400 19003KT P6SM SCT035
     FM240100 00000KT P6SM SKC=

USA.gov is the U.S. government's official web portal to all federal, state and local government web resources and services.